createdAt,value
2023-02-28T00:00:00.175Z,76.5
2023-02-28T00:05:00.255Z,76.7
2023-02-28T00:10:00.183Z,77
2023-02-28T00:15:00.180Z,77
2023-02-28T00:20:00.215Z,77.2
2023-02-28T00:25:00.210Z,77.4
2023-02-28T00:35:00.178Z,77.3
2023-02-28T00:40:00.184Z,77.5
2023-02-28T00:45:00.217Z,77.7
2023-02-28T00:55:00.211Z,77.9
2023-02-28T01:00:00.191Z,77.9
2023-02-28T01:05:00.196Z,78
2023-02-28T01:10:00.199Z,78
2023-02-28T01:15:00.212Z,78.2
2023-02-28T01:20:00.261Z,78.2
2023-02-28T01:25:00.213Z,78.4
2023-02-28T01:30:00.160Z,78.4
2023-02-28T01:35:00.205Z,78.5
2023-02-28T01:40:00.262Z,78.6
2023-02-28T01:45:00.212Z,78.7
2023-02-28T01:50:00.136Z,78.6
2023-02-28T01:55:00.154Z,78.8
2023-02-28T02:00:00.186Z,78.6
2023-02-28T02:05:00.175Z,78.6
2023-02-28T02:10:00.159Z,78.8
2023-02-28T02:15:00.153Z,79
2023-02-28T02:20:00.141Z,79.1
2023-02-28T02:25:00.186Z,79.4
2023-02-28T02:30:00.132Z,79.4
2023-02-28T02:35:00.124Z,79.4
2023-02-28T02:40:00.127Z,79.4
2023-02-28T02:45:00.130Z,79.3
2023-02-28T02:50:00.127Z,79.5
2023-02-28T02:55:00.116Z,80
2023-02-28T03:00:00.188Z,80.3
2023-02-28T03:05:00.133Z,80.7
2023-02-28T03:10:00.125Z,81.2
2023-02-28T03:15:00.131Z,81.6
2023-02-28T03:20:00.158Z,81.7
2023-02-28T03:25:00.165Z,82.1
2023-02-28T03:30:00.122Z,82.4
2023-02-28T03:35:00.142Z,82.6
2023-02-28T03:40:00.118Z,82.8
2023-02-28T03:45:00.131Z,83.2
2023-02-28T03:50:00.120Z,83.3
2023-02-28T03:55:00.136Z,83.4
2023-02-28T04:00:00.127Z,83.4
2023-02-28T04:05:00.132Z,83.5
2023-02-28T04:10:00.113Z,83.5
2023-02-28T04:15:00.096Z,83.5
2023-02-28T04:20:00.126Z,83.4
2023-02-28T04:25:00.131Z,83.2
2023-02-28T04:30:00.150Z,82.8
2023-02-28T04:35:00.113Z,82.7
2023-02-28T04:40:00.107Z,82.3
2023-02-28T04:45:00.162Z,82.2
2023-02-28T04:50:00.155Z,82.3
2023-02-28T04:55:00.132Z,82.2
2023-02-28T05:00:00.345Z,82.2
2023-02-28T05:05:00.267Z,82
2023-02-28T05:10:00.156Z,81.8
2023-02-28T05:15:00.128Z,81.7
2023-02-28T05:20:09.925Z,81.6
2023-02-28T05:25:00.125Z,81.6
2023-02-28T05:30:00.107Z,80.9
2023-02-28T05:35:00.116Z,81.3
2023-02-28T05:40:00.096Z,81.2
2023-02-28T05:45:00.116Z,81.2
2023-02-28T05:50:00.125Z,81.1
2023-02-28T05:55:00.133Z,81
2023-02-28T06:00:00.107Z,81.1
2023-02-28T06:05:00.152Z,81.2
2023-02-28T06:10:00.198Z,81.5
2023-02-28T06:15:00.106Z,81.9
2023-02-28T06:20:00.098Z,82.1
2023-02-28T06:25:00.140Z,82
2023-02-28T06:30:00.110Z,82
2023-02-28T06:35:00.097Z,82.2
2023-02-28T06:40:00.141Z,82.2
2023-02-28T06:45:00.112Z,82.8
2023-02-28T06:50:00.122Z,82.5
2023-02-28T06:55:00.105Z,82.5
2023-02-28T07:00:00.146Z,82.4
2023-02-28T07:05:00.122Z,82.3
2023-02-28T07:10:00.124Z,82.2
2023-02-28T07:15:00.108Z,82.1
2023-02-28T07:20:00.132Z,81.6
2023-02-28T07:25:00.130Z,83.1
2023-02-28T07:30:00.151Z,82
2023-02-28T07:35:00.122Z,78.1
2023-02-28T07:40:00.116Z,72.4
2023-02-28T07:45:00.149Z,72.2
2023-02-28T07:50:00.138Z,73.7
2023-02-28T07:55:00.113Z,72.2
2023-02-28T08:00:00.126Z,69.8
2023-02-28T08:05:00.237Z,71.9
2023-02-28T08:10:00.162Z,67.3
2023-02-28T08:15:00.157Z,63.6
2023-02-28T08:20:00.095Z,60.8
2023-02-28T08:25:00.176Z,57.5
2023-02-28T08:30:00.127Z,53.6
2023-02-28T08:35:00.123Z,43.5
2023-02-28T08:40:00.166Z,40.1
2023-02-28T08:45:00.150Z,38.1
2023-02-28T08:50:00.113Z,37.1
2023-02-28T08:55:00.176Z,36.7
2023-02-28T09:00:00.170Z,36.5
2023-02-28T09:05:00.129Z,35.1
2023-02-28T09:10:00.105Z,34.1
2023-02-28T09:15:00.141Z,33.5
2023-02-28T09:20:00.169Z,33.6
2023-02-28T09:25:00.125Z,33.8
2023-02-28T09:30:00.106Z,34.9
2023-02-28T09:35:00.154Z,34.5
2023-02-28T09:40:00.179Z,33.8
2023-02-28T09:45:00.144Z,35.2
2023-02-28T09:50:00.132Z,35.1
2023-02-28T09:55:00.128Z,36.1
2023-02-28T10:00:00.152Z,34.7
2023-02-28T10:05:00.248Z,35.4
2023-02-28T10:10:00.113Z,34.2
2023-02-28T10:15:00.106Z,33.1
2023-02-28T10:20:00.157Z,34.8
2023-02-28T10:25:00.150Z,34.8
2023-02-28T10:30:00.151Z,35.1
2023-02-28T10:35:00.125Z,34.9
2023-02-28T10:40:00.153Z,35.3
2023-02-28T10:45:00.147Z,32.5
2023-02-28T10:50:00.152Z,33.6
2023-02-28T10:55:00.113Z,33.7
2023-02-28T11:00:00.126Z,31.9
2023-02-28T11:05:00.172Z,32.2
2023-02-28T11:10:00.141Z,31.8
2023-02-28T11:15:00.143Z,33.6
2023-02-28T11:20:00.140Z,34.5
2023-02-28T11:25:00.127Z,34.2
2023-02-28T11:30:00.105Z,34.6
2023-02-28T11:35:00.114Z,35
2023-02-28T11:40:00.124Z,35.8
2023-02-28T11:45:00.144Z,35.9
2023-02-28T11:50:00.107Z,37.3
2023-02-28T11:55:00.186Z,38.4
2023-02-28T12:00:00.133Z,36.7
2023-02-28T12:05:00.192Z,36.9
2023-02-28T12:10:00.119Z,37.8
2023-02-28T12:15:00.146Z,37.2
2023-02-28T12:20:00.128Z,36.3
2023-02-28T12:25:00.128Z,37.9
2023-02-28T12:30:00.158Z,38.5
2023-02-28T12:35:00.114Z,39.4
2023-02-28T12:40:00.178Z,39.2
2023-02-28T12:45:00.180Z,39.4
2023-02-28T12:50:00.140Z,40.5
2023-02-28T12:55:00.114Z,39.9
2023-02-28T13:00:00.165Z,42.1
2023-02-28T13:05:00.134Z,43.4
2023-02-28T13:10:00.140Z,44.2
2023-02-28T13:15:00.116Z,43.6
2023-02-28T13:20:00.125Z,42.9
2023-02-28T13:25:00.122Z,42.7
2023-02-28T13:30:00.211Z,43.3
2023-02-28T13:35:00.125Z,43.3
2023-02-28T13:40:00.130Z,43.6
2023-02-28T13:45:00.140Z,43.7
2023-02-28T13:50:00.126Z,44.2
2023-02-28T13:55:00.117Z,44.2
2023-02-28T14:00:00.173Z,44.5
2023-02-28T14:05:00.216Z,44.6
2023-02-28T14:10:00.129Z,44.4
2023-02-28T14:15:00.098Z,45
2023-02-28T14:20:00.133Z,45.5
2023-02-28T14:25:00.166Z,44.1
2023-02-28T14:30:00.110Z,45.5
2023-02-28T14:40:00.158Z,46.2
2023-02-28T14:45:00.183Z,46
2023-02-28T14:50:00.140Z,46.1
2023-02-28T14:55:00.188Z,45.5
2023-02-28T15:00:00.175Z,45.9
2023-02-28T15:05:00.283Z,46
2023-02-28T15:10:00.111Z,46.1
2023-02-28T15:15:00.116Z,46
2023-02-28T15:20:00.207Z,46.7
2023-02-28T15:25:00.142Z,46.8
2023-02-28T15:30:00.145Z,46.4
2023-02-28T15:35:00.103Z,46.7
2023-02-28T15:40:00.147Z,47.1
2023-02-28T15:45:00.188Z,46.7
2023-02-28T15:50:00.186Z,47.9
2023-02-28T15:55:00.126Z,47.9
2023-02-28T16:00:00.212Z,46.5
2023-02-28T16:05:00.136Z,48.4
2023-02-28T16:10:00.189Z,49.4
2023-02-28T16:15:00.140Z,50.6
2023-02-28T16:20:00.234Z,52
2023-02-28T16:25:00.147Z,52.8
2023-02-28T16:30:00.220Z,53.3
2023-02-28T16:35:00.111Z,53.9
2023-02-28T16:40:00.123Z,54.6
2023-02-28T16:45:00.198Z,55.7
2023-02-28T16:50:00.127Z,56.7
2023-02-28T16:55:00.102Z,57.7
2023-02-28T17:00:00.186Z,58.7
2023-02-28T17:05:00.172Z,59.5
2023-02-28T17:10:00.140Z,60.3
2023-02-28T17:15:00.103Z,60.7
2023-02-28T17:20:00.125Z,61.1
2023-02-28T17:25:00.129Z,61.5
2023-02-28T17:30:00.141Z,62.3
2023-02-28T17:35:00.136Z,62.6
2023-02-28T17:40:00.117Z,63
2023-02-28T17:45:00.156Z,63.5
2023-02-28T17:50:00.209Z,63.8
2023-02-28T17:55:00.121Z,63.7
2023-02-28T18:00:00.168Z,64.1
2023-02-28T18:05:00.123Z,64.6
2023-02-28T18:10:00.138Z,65
2023-02-28T18:15:00.147Z,65.5
2023-02-28T18:20:00.148Z,65.9
2023-02-28T18:25:00.137Z,66.3
2023-02-28T18:30:00.243Z,67
2023-02-28T18:35:00.117Z,67.6
2023-02-28T18:40:00.164Z,67.9
2023-02-28T18:45:00.201Z,68.7
2023-02-28T18:50:00.916Z,69.2
2023-02-28T18:55:00.117Z,69.5
2023-02-28T19:00:00.212Z,69.8
2023-02-28T19:05:00.177Z,69.8
2023-02-28T19:10:00.125Z,69.9
2023-02-28T19:15:00.151Z,69.9
2023-02-28T19:20:00.126Z,70
2023-02-28T19:25:00.146Z,70.2
2023-02-28T19:30:00.157Z,70
2023-02-28T19:35:00.132Z,70.4
2023-02-28T19:40:00.138Z,70.4
2023-02-28T19:45:00.179Z,71.3
2023-02-28T19:50:00.121Z,71.2
2023-02-28T19:55:00.115Z,71.5
2023-02-28T20:00:00.382Z,71.9
2023-02-28T20:05:01.253Z,72.2
2023-02-28T20:10:00.134Z,72.6
2023-02-28T20:15:00.146Z,72.7
2023-02-28T20:20:00.125Z,73.3
2023-02-28T20:25:00.126Z,73.6
2023-02-28T20:30:00.136Z,73.7
2023-02-28T20:35:00.094Z,74
2023-02-28T20:40:00.142Z,74.1
2023-02-28T20:45:00.151Z,74.4
2023-02-28T20:50:00.127Z,74.5
2023-02-28T20:55:00.106Z,74.9
2023-02-28T21:00:00.200Z,74.7
2023-02-28T21:05:00.157Z,75.3
2023-02-28T21:10:00.152Z,75.2
2023-02-28T21:15:00.167Z,75.2
2023-02-28T21:20:00.127Z,75.2
2023-02-28T21:25:00.169Z,75.4
2023-02-28T21:30:00.167Z,75.5
2023-02-28T21:35:00.156Z,75.5
2023-02-28T21:40:00.147Z,76.1
2023-02-28T21:45:00.150Z,75.9
2023-02-28T21:50:00.162Z,75.8
2023-02-28T21:55:00.136Z,75.7
2023-02-28T22:00:00.168Z,75.9
2023-02-28T22:05:00.133Z,76
2023-02-28T22:10:00.114Z,76.2
2023-02-28T22:15:00.122Z,76.2
2023-02-28T22:20:00.117Z,76.5
2023-02-28T22:25:00.150Z,76.5
2023-02-28T22:30:00.187Z,76.7
2023-02-28T22:35:00.131Z,76.8
2023-02-28T22:40:00.136Z,77.1
2023-02-28T22:45:00.145Z,76.2
2023-02-28T22:50:00.135Z,77
2023-02-28T22:55:00.124Z,77
2023-02-28T23:00:00.175Z,77
2023-02-28T23:05:00.108Z,77
2023-02-28T23:10:00.113Z,77.1
2023-02-28T23:15:00.114Z,77.3
2023-02-28T23:20:00.128Z,77.2
2023-02-28T23:25:00.165Z,77.4
2023-02-28T23:30:00.144Z,77.6
2023-02-28T23:35:00.134Z,77.6
2023-02-28T23:40:00.123Z,77.6
2023-02-28T23:45:00.141Z,77.8
2023-02-28T23:50:00.107Z,77.9
2023-02-28T23:55:00.120Z,78
